| time (UTC) | temp C | wind direction | speed KPH | gust KPH | rain 1hr cm | rain 24hr cm | rain mn cm | humidity % | barometer mb |
| 20260507101416 | 10 | 225 | 11.3 | 11.3 | 0.05 | 1.78 | 0.15 | 89 | 1011.8 |
| 20260507100416 | 10 | 225 | 12.9 | 17.7 | 0.05 | 1.78 | 0.15 | 89 | 1011.8 |
| 20260507095416 | 11 | 248 | 11.3 | 19.3 | 0.05 | 1.78 | 0.15 | 90 | 1011.6 |
| 20260507094416 | 10 | 225 | 4.8 | 9.7 | 0.03 | 1.75 | 0.15 | 90 | 1011.5 |
| 20260507093416 | 10 | 248 | 9.7 | 14.5 | 0.00 | 1.75 | 0.13 | 90 | 1011.5 |
| 20260507092416 | 10 | 225 | 3.2 | 6.4 | 0.00 | 1.75 | 0.13 | 90 | 1011.5 |
| 20260507091417 | 10 | 225 | 14.5 | 19.3 | 0.00 | 1.75 | 0.13 | 90 | 1011.4 |
| 20260507090436 | 10 | 203 | 12.9 | 19.3 | 0.00 | 1.75 | 0.13 | 90 | 1011.3 |
| 20260507085416 | 10 | 203 | 9.7 | 16.1 | 0.00 | 1.75 | 0.13 | 90 | 1011.1 |
| 20260507084416 | 10 | 225 | 11.3 | 16.1 | 0.00 | 1.75 | 0.13 | 90 | 1011.1 |
| 20260507083416 | 10 | 225 | 12.9 | 19.3 | 0.00 | 1.75 | 0.13 | 90 | 1011.1 |
| 20260507082436 | 10 | 180 | 8.0 | 9.7 | 0.00 | 1.75 | 0.13 | 91 | 1011.0 |
| 20260507081416 | 10 | 203 | 12.9 | 20.9 | 0.00 | 1.75 | 0.13 | 91 | 1010.7 |
| 20260507080416 | 10 | 203 | 11.3 | 19.3 | 0.00 | 1.75 | 0.13 | 91 | 1010.7 |
| 20260507075416 | 10 | 203 | 14.5 | 24.1 | 0.00 | 1.75 | 0.13 | 92 | 1010.5 |
| 20260507074416 | 10 | 225 | 16.1 | 22.5 | 0.00 | 1.75 | 0.13 | 92 | 1010.4 |
| 20260507073456 | 10 | 225 | 6.4 | 8.0 | 0.00 | 1.75 | 0.13 | 92 | 1010.4 |
| 20260507072436 | 10 | 203 | 11.3 | 19.3 | 0.00 | 1.75 | 0.13 | 92 | 1010.4 |
| 20260507071416 | 9 | 203 | 8.0 | 11.3 | 0.00 | 1.75 | 0.13 | 93 | 1010.4 |
| 20260507070436 | 9 | 225 | 11.3 | 16.1 | 0.00 | 1.75 | 0.13 | 92 | 1010.4 |
| 20260507065436 | 9 | 203 | 8.0 | 11.3 | 0.00 | 1.75 | 0.13 | 92 | 1010.2 |
| 20260507064415 | 9 | 248 | 9.7 | 14.5 | 0.00 | 1.75 | 0.13 | 92 | 1010.1 |
| 20260507063415 | 9 | 180 | 6.4 | 9.7 | 0.00 | 1.75 | 0.13 | 92 | 1010.1 |
| 20260507062415 | 9 | 203 | 6.4 | 8.0 | 0.00 | 1.75 | 0.13 | 92 | 1009.9 |
| 20260507061415 | 9 | 225 | 11.3 | 17.7 | 0.00 | 1.75 | 0.13 | 92 | 1010.0 |
| 20260507060415 | 9 | 225 | 8.0 | 11.3 | 0.00 | 1.75 | 0.13 | 92 | 1010.0 |
| 20260507055415 | 9 | 203 | 9.7 | 14.5 | 0.00 | 1.75 | 0.13 | 92 | 1009.8 |
| 20260507054415 | 9 | 225 | 6.4 | 9.7 | 0.00 | 1.75 | 0.13 | 92 | 1009.6 |
| 20260507053415 | 9 | 203 | 11.3 | 19.3 | 0.00 | 1.75 | 0.13 | 92 | 1009.6 |
| 20260507052415 | 9 | 225 | 6.4 | 9.7 | 0.00 | 1.75 | 0.13 | 92 | 1009.6 |
| 20260507051415 | 9 | 203 | 4.8 | 8.0 | 0.00 | 1.75 | 0.13 | 92 | 1009.3 |
| 20260507050415 | 9 | 248 | 11.3 | 16.1 | 0.03 | 1.75 | 0.13 | 92 | 1009.3 |
| 20260507045415 | 9 | 225 | 6.4 | 8.0 | 0.03 | 1.75 | 0.13 | 92 | 1009.1 |
| 20260507044415 | 9 | 225 | 4.8 | 8.0 | 0.03 | 1.75 | 0.13 | 92 | 1009.0 |
| 20260507043436 | 9 | 248 | 9.7 | 16.1 | 0.03 | 1.75 | 0.13 | 92 | 1009.0 |
| 20260507042435 | 9 | 248 | 8.0 | 16.1 | 0.03 | 1.75 | 0.13 | 92 | 1008.9 |
| 20260507041415 | 9 | 225 | 16.1 | 22.5 | 0.05 | 1.75 | 0.13 | 92 | 1008.6 |
| 20260507040415 | 10 | 203 | 6.4 | 9.7 | 0.05 | 1.73 | 0.10 | 92 | 1008.6 |
| 20260507035417 | 10 | 225 | 17.7 | 24.1 | 0.05 | 1.73 | 0.10 | 92 | 1008.4 |
| 20260507034417 | 10 | 180 | 8.0 | 16.1 | 0.05 | 1.73 | 0.10 | 92 | 1008.4 |
| 20260507033417 | 10 | 203 | 3.2 | 8.0 | 0.05 | 1.73 | 0.10 | 92 | 1008.4 |
| 20260507032417 | 10 | 180 | 1.6 | 3.2 | 0.05 | 1.73 | 0.10 | 92 | 1008.4 |
| 20260507031417 | 10 | 203 | 4.8 | 8.0 | 0.03 | 1.68 | 0.05 | 92 | 1008.2 |
| 20260507030437 | 10 | 180 | 6.4 | 8.0 | 0.03 | 1.65 | 0.05 | 92 | 1008.2 |
| 20260507025417 | 10 | 203 | 8.0 | 11.3 | 0.03 | 1.65 | 0.05 | 92 | 1008.2 |
| 20260507024417 | 10 | 203 | 8.0 | 11.3 | 0.03 | 1.65 | 0.05 | 92 | 1008.3 |
| 20260507023417 | 10 | 203 | 6.4 | 9.7 | 0.03 | 1.65 | 0.05 | 92 | 1008.3 |
| 20260507022417 | 10 | 203 | 9.7 | 11.3 | 0.03 | 1.65 | 0.05 | 92 | 1008.3 |
| 20260507021417 | 10 | 180 | 1.6 | 4.8 | 0.03 | 1.65 | 0.05 | 92 | 1008.1 |
| 20260507020417 | 10 | 203 | 12.9 | 19.3 | 0.00 | 1.65 | 0.03 | 92 | 1008.1 |
| 20260507015517 | 10 | 225 | 6.4 | 8.0 | 0.00 | 1.65 | 0.03 | 92 | 1008.1 |
| 20260507014417 | 10 | 203 | 6.4 | 9.7 | 0.00 | 1.65 | 0.03 | 92 | 1007.8 |
| 20260507013417 | 10 | 248 | 9.7 | 16.1 | 0.00 | 1.65 | 0.03 | 92 | 1007.8 |
| 20260507012437 | 10 | 225 | 14.5 | 22.5 | 0.00 | 1.65 | 0.03 | 92 | 1007.7 |
| 20260507011417 | 10 | 225 | 9.7 | 16.1 | 0.00 | 1.65 | 0.03 | 92 | 1007.8 |
| 20260507010417 | 10 | 203 | 9.7 | 17.7 | 0.00 | 1.65 | 0.03 | 92 | 1007.8 |
| 20260507005417 | 10 | 203 | 9.7 | 14.5 | 0.00 | 1.65 | 0.03 | 92 | 1007.6 |
| 20260507004416 | 11 | 180 | 12.9 | 22.5 | 0.00 | 1.65 | 0.03 | 92 | 1007.7 |
| 20260507003416 | 11 | 203 | 11.3 | 16.1 | 0.00 | 1.65 | 0.03 | 92 | 1007.7 |
| 20260507002416 | 11 | 225 | 6.4 | 9.7 | 0.00 | 1.65 | 0.03 | 92 | 1007.7 |
| 20260507001416 | 11 | 203 | 4.8 | 8.0 | 0.00 | 1.65 | 0.03 | 92 | 1007.8 |
| 20260507000416 | 11 | 203 | 3.2 | 4.8 | 0.00 | 1.65 | 0.03 | 92 | 1007.8 |
| 20260506235417 | 11 | 225 | 4.8 | 4.8 | 0.00 | 1.65 | 0.03 | 91 | 1007.7 |
| 20260506234437 | 11 | 225 | 6.4 | 11.3 | 0.00 | 1.65 | 0.03 | 91 | 1007.6 |
| 20260506233437 | 11 | 180 | 3.2 | 8.0 | 0.00 | 1.65 | 0.03 | 91 | 1007.6 |
| 20260506232436 | 11 | 203 | 4.8 | 8.0 | 0.00 | 1.65 | 0.03 | 92 | 1007.6 |
| 20260506231416 | 11 | 180 | 4.8 | 8.0 | 0.00 | 1.65 | 0.03 | 91 | 1007.5 |
| 20260506230416 | 11 | 203 | 4.8 | 9.7 | 0.03 | 1.65 | 0.03 | 91 | 1007.5 |
| 20260506225417 | 11 | 180 | 1.6 | 3.2 | 0.03 | 1.65 | 0.03 | 91 | 1007.5 |
| 20260506224416 | 11 | 0.0 | 3.2 | 0.03 | 1.65 | 0.03 | 91 | 1007.4 | |
| 20260506223417 | 11 | 180 | 1.6 | 6.4 | 0.03 | 1.65 | 0.03 | 91 | 1007.4 |
| 20260506222416 | 11 | 180 | 3.2 | 8.0 | 0.03 | 1.65 | 0.03 | 91 | 1007.4 |
| 20260506221417 | 11 | 180 | 3.2 | 4.8 | 0.03 | 1.65 | 0.03 | 91 | 1007.2 |
| 20260506220416 | 11 | 0.0 | 3.2 | 0.00 | 1.63 | 0.00 | 91 | 1007.2 | |
| 20260506215437 | 11 | 180 | 3.2 | 4.8 | 0.05 | 1.63 | 1.63 | 91 | 1007.0 |
| 20260506214417 | 11 | 0.0 | 0.0 | 0.15 | 1.63 | 1.63 | 90 | 1006.9 | |
| 20260506213417 | 11 | 180 | 3.2 | 4.8 | 0.18 | 1.63 | 1.63 | 90 | 1006.9 |
| 20260506212417 | 11 | 0.0 | 0.0 | 0.28 | 1.63 | 1.63 | 90 | 1006.9 | |
| 20260506211417 | 11 | 0.0 | 0.0 | 0.38 | 1.63 | 1.63 | 90 | 1007.2 | |
| 20260506210424 | 11 | 180 | 3.2 | 4.8 | 0.43 | 1.63 | 1.63 | 90 | 1007.2 |
| 20260506205457 | 11 | 0.0 | 0.0 | 0.41 | 1.57 | 1.57 | 90 | 1007.3 | |
| 20260506204417 | 11 | 0.0 | 0.0 | 0.33 | 1.47 | 1.47 | 90 | 1007.4 | |
| 20260506203417 | 11 | 0.0 | 0.0 | 0.28 | 1.45 | 1.45 | 90 | 1007.5 | |
| 20260506202437 | 11 | 180 | 3.2 | 4.8 | 0.18 | 1.35 | 1.35 | 90 | 1007.1 |
| 20260506201417 | 11 | 203 | 1.6 | 3.2 | 0.08 | 1.24 | 1.24 | 90 | 1006.9 |
| 20260506200436 | 12 | 248 | 3.2 | 3.2 | 0.05 | 1.19 | 1.19 | 90 | 1006.9 |
| 20260506200310 | 12 | 248 | 6.4 | 11.3 | 0.05 | 1.17 | 1.17 | 89 | 1006.2 |
| 20260506193856 | 12 | 293 | 12.9 | 17.7 | 0.03 | 1.17 | 1.17 | 89 | 1005.6 |
| 20260506192836 | 12 | 68 | 1.6 | 3.2 | 0.03 | 1.17 | 1.17 | 89 | 1005.5 |
| 20260506191816 | 12 | 68 | 4.8 | 6.4 | 0.08 | 1.17 | 1.17 | 89 | 1005.5 |
| 20260506190816 | 12 | 158 | 1.6 | 3.2 | 0.20 | 1.17 | 1.17 | 88 | 1005.6 |
| 20260506185816 | 12 | 158 | 1.6 | 4.8 | 0.53 | 1.14 | 1.14 | 87 | 1005.5 |
| 20260506184816 | 12 | 0.0 | 3.2 | 0.89 | 1.14 | 1.14 | 87 | 1005.5 | |
| 20260506183815 | 12 | 158 | 3.2 | 4.8 | 0.91 | 1.14 | 1.14 | 86 | 1005.4 |
| 20260506182815 | 13 | 203 | 3.2 | 4.8 | 0.91 | 1.17 | 1.14 | 85 | 1005.2 |
| 20260506181815 | 13 | 203 | 1.6 | 3.2 | 0.91 | 1.14 | 1.09 | 84 | 1005.4 |
| 20260506180815 | 13 | 203 | 3.2 | 8.0 | 0.94 | 1.04 | 0.97 | 83 | 1005.6 |
| 20260506175816 | 14 | 180 | 6.4 | 16.1 | 0.61 | 0.79 | 0.61 | 81 | 1004.9 |
| 20260506174818 | 15 | 203 | 11.3 | 16.1 | 0.25 | 0.64 | 0.25 | 79 | 1005.0 |
| 20260506173816 | 15 | 23 | 1.6 | 4.8 | 0.23 | 0.97 | 0.23 | 76 | 1004.5 |
| 20260506172816 | 16 | 338 | 3.2 | 4.8 | 0.23 | 1.07 | 0.23 | 75 | 1004.3 |
| 20260506171816 | 16 | 315 | 6.4 | 8.0 | 0.15 | 1.35 | 0.15 | 73 | 1004.4 |
| 20260506170816 | 17 | 315 | 1.6 | 4.8 | 0.03 | 1.22 | 0.03 | 70 | 1004.2 |
| 20260506165836 | 17 | 0.0 | 1.6 | 0.00 | 1.19 | 0.00 | 68 | 1004.3 | |
| 20260506164935 | 17 | 315 | 3.2 | 4.8 | 0.00 | 1.19 | 0.00 | 66 | 1004.3 |
| 20260506164152 | 18 | 315 | 1.6 | 6.4 | 0.00 | 1.19 | 0.00 | 65 | 1004.3 |
| 20260506163455 | 18 | 315 | 1.6 | 4.8 | 0.00 | 1.19 | 0.00 | 65 | 1004.3 |
| 20260506162435 | 18 | 315 | 1.6 | 4.8 | 0.00 | 1.19 | 0.00 | 64 | 1004.4 |
| 20260506161415 | 18 | 0.0 | 1.6 | 0.00 | 1.19 | 0.00 | 65 | 1004.4 | |
| 20260506160415 | 18 | 315 | 3.2 | 4.8 | 0.00 | 1.19 | 0.00 | 64 | 1004.4 |
| 20260506155415 | 18 | 0.0 | 1.6 | 0.00 | 1.19 | 0.00 | 65 | 1004.4 | |
| 20260506154455 | 18 | 315 | 3.2 | 4.8 | 0.00 | 1.19 | 0.00 | 65 | 1004.7 |
| 20260506153415 | 18 | 338 | 3.2 | 4.8 | 0.00 | 1.19 | 0.00 | 64 | 1004.7 |
| 20260506152415 | 18 | 338 | 3.2 | 4.8 | 0.00 | 1.19 | 0.00 | 63 | 1004.7 |
| 20260506151417 | 18 | 293 | 4.8 | 4.8 | 0.00 | 1.19 | 0.00 | 63 | 1004.8 |
| 20260506150417 | 18 | 293 | 1.6 | 4.8 | 0.00 | 1.19 | 0.00 | 63 | 1004.8 |
| 20260506145417 | 18 | 270 | 1.6 | 6.4 | 0.00 | 1.19 | 0.00 | 61 | 1005.0 |
| 20260506144417 | 18 | 270 | 3.2 | 6.4 | 0.00 | 1.19 | 0.00 | 60 | 1005.0 |
| 20260506143417 | 19 | 270 | 3.2 | 4.8 | 0.00 | 1.19 | 0.00 | 58 | 1005.0 |
| 20260506142417 | 20 | 0.0 | 1.6 | 0.00 | 1.19 | 0.00 | 59 | 1005.1 | |
| 20260506141417 | 19 | 315 | 1.6 | 3.2 | 0.00 | 1.19 | 0.00 | 62 | 1005.0 |
| 20260506140420 | 18 | 135 | 1.6 | 4.8 | 0.00 | 1.19 | 0.00 | 60 | 1005.0 |
| 20260506135417 | 18 | 180 | 4.8 | 6.4 | 0.00 | 1.19 | 0.00 | 61 | 1005.0 |
| 20260506134417 | 18 | 225 | 6.4 | 8.0 | 0.00 | 1.19 | 0.00 | 64 | 1005.5 |
| 20260506133415 | 18 | 248 | 1.6 | 4.8 | 0.00 | 1.19 | 0.00 | 64 | 1005.4 |
| 20260506132417 | 18 | 225 | 6.4 | 11.3 | 0.00 | 1.19 | 0.00 | 64 | 1005.5 |
| 20260506131417 | 17 | 270 | 3.2 | 4.8 | 0.00 | 1.19 | 0.00 | 66 | 1005.6 |
| 20260506130417 | 17 | 248 | 1.6 | 4.8 | 0.00 | 1.19 | 0.00 | 65 | 1005.6 |
| 20260506125417 | 17 | 158 | 1.6 | 4.8 | 0.00 | 1.19 | 0.00 | 65 | 1005.6 |
| 20260506124437 | 17 | 203 | 8.0 | 11.3 | 0.00 | 1.19 | 0.00 | 66 | 1005.7 |
| 20260506123417 | 17 | 203 | 3.2 | 4.8 | 0.00 | 1.19 | 0.00 | 64 | 1005.7 |
| 20260506122417 | 17 | 180 | 6.4 | 8.0 | 0.00 | 1.19 | 0.00 | 64 | 1006.0 |
| 20260506121417 | 17 | 180 | 6.4 | 9.7 | 0.00 | 1.19 | 0.00 | 65 | 1006.0 |
| 20260506120417 | 17 | 248 | 11.3 | 16.1 | 0.00 | 1.19 | 0.00 | 65 | 1006.0 |
| 20260506115417 | 17 | 158 | 4.8 | 9.7 | 0.00 | 1.19 | 0.00 | 66 | 1006.0 |
| 20260506114417 | 17 | 180 | 6.4 | 9.7 | 0.00 | 1.19 | 0.00 | 65 | 1006.1 |
| 20260506113417 | 17 | 180 | 3.2 | 6.4 | 0.00 | 1.19 | 0.00 | 65 | 1006.1 |
| 20260506112417 | 17 | 180 | 4.8 | 14.5 | 0.00 | 1.19 | 0.00 | 66 | 1006.4 |
| 20260506111436 | 17 | 158 | 4.8 | 8.0 | 0.00 | 1.19 | 0.00 | 66 | 1006.4 |
| 20260506110537 | 17 | 180 | 1.6 | 3.2 | 0.00 | 1.19 | 0.00 | 65 | 1006.4 |
| 20260506105417 | 17 | 180 | 11.3 | 19.3 | 0.00 | 1.19 | 0.00 | 67 | 1006.6 |
| 20260506104416 | 17 | 158 | 9.7 | 17.7 | 0.00 | 1.19 | 0.00 | 69 | 1006.8 |
| 20260506103436 | 16 | 203 | 9.7 | 16.1 | 0.00 | 1.19 | 0.00 | 69 | 1006.7 |
| 20260506102417 | 16 | 158 | 11.3 | 17.7 | 0.00 | 1.19 | 0.00 | 69 | 1006.7 |